sensor_id;sensor_type;location;lat;lon;timestamp;P1;durP1;ratioP1;P2;durP2;ratioP2
22557;SDS011;11445;53.816;8.902;2023-06-22T00:01:00;17.75;;;14.07;;
22557;SDS011;11445;53.816;8.902;2023-06-22T00:03:26;16.73;;;13.75;;
22557;SDS011;11445;53.816;8.902;2023-06-22T00:05:53;19.65;;;14.73;;
22557;SDS011;11445;53.816;8.902;2023-06-22T00:08:22;20.17;;;14.45;;
22557;SDS011;11445;53.816;8.902;2023-06-22T00:10:49;18.38;;;12.68;;
22557;SDS011;11445;53.816;8.902;2023-06-22T00:13:16;16.15;;;12.50;;
22557;SDS011;11445;53.816;8.902;2023-06-22T00:15:43;16.63;;;12.93;;
22557;SDS011;11445;53.816;8.902;2023-06-22T00:18:10;18.13;;;13.63;;
22557;SDS011;11445;53.816;8.902;2023-06-22T00:20:38;19.42;;;14.40;;
22557;SDS011;11445;53.816;8.902;2023-06-22T00:23:05;22.88;;;15.50;;
22557;SDS011;11445;53.816;8.902;2023-06-22T00:25:34;20.67;;;15.57;;
22557;SDS011;11445;53.816;8.902;2023-06-22T00:28:02;21.10;;;14.80;;
22557;SDS011;11445;53.816;8.902;2023-06-22T00:30:29;22.80;;;15.30;;
22557;SDS011;11445;53.816;8.902;2023-06-22T00:32:57;21.75;;;14.35;;
22557;SDS011;11445;53.816;8.902;2023-06-22T00:35:24;20.25;;;14.63;;
22557;SDS011;11445;53.816;8.902;2023-06-22T00:37:53;20.23;;;14.60;;
22557;SDS011;11445;53.816;8.902;2023-06-22T00:40:25;19.90;;;14.23;;
22557;SDS011;11445;53.816;8.902;2023-06-22T00:42:54;22.75;;;14.57;;
22557;SDS011;11445;53.816;8.902;2023-06-22T00:45:21;19.75;;;15.50;;
22557;SDS011;11445;53.816;8.902;2023-06-22T00:47:49;24.30;;;17.85;;
22557;SDS011;11445;53.816;8.902;2023-06-22T00:50:18;23.13;;;16.25;;
22557;SDS011;11445;53.816;8.902;2023-06-22T00:52:47;20.63;;;15.52;;
22557;SDS011;11445;53.816;8.902;2023-06-22T00:55:17;21.15;;;15.63;;
22557;SDS011;11445;53.816;8.902;2023-06-22T00:57:45;24.13;;;17.08;;
22557;SDS011;11445;53.816;8.902;2023-06-22T01:00:14;21.67;;;16.02;;
22557;SDS011;11445;53.816;8.902;2023-06-22T01:02:42;22.00;;;15.32;;
22557;SDS011;11445;53.816;8.902;2023-06-22T01:05:11;20.38;;;15.18;;
22557;SDS011;11445;53.816;8.902;2023-06-22T01:07:39;20.77;;;15.18;;
22557;SDS011;11445;53.816;8.902;2023-06-22T01:10:20;23.58;;;15.82;;
22557;SDS011;11445;53.816;8.902;2023-06-22T01:12:51;21.77;;;15.18;;
22557;SDS011;11445;53.816;8.902;2023-06-22T01:15:23;22.60;;;16.45;;
22557;SDS011;11445;53.816;8.902;2023-06-22T01:20:22;20.60;;;15.98;;
22557;SDS011;11445;53.816;8.902;2023-06-22T01:22:56;19.90;;;15.85;;
22557;SDS011;11445;53.816;8.902;2023-06-22T01:25:33;22.58;;;15.90;;
22557;SDS011;11445;53.816;8.902;2023-06-22T01:28:12;20.23;;;15.35;;
22557;SDS011;11445;53.816;8.902;2023-06-22T01:30:51;21.30;;;15.57;;
22557;SDS011;11445;53.816;8.902;2023-06-22T01:33:28;21.02;;;16.30;;
22557;SDS011;11445;53.816;8.902;2023-06-22T01:35:57;25.25;;;16.58;;
22557;SDS011;11445;53.816;8.902;2023-06-22T01:38:25;23.50;;;17.55;;
22557;SDS011;11445;53.816;8.902;2023-06-22T01:40:53;24.30;;;17.20;;
22557;SDS011;11445;53.816;8.902;2023-06-22T01:43:21;21.75;;;16.15;;
22557;SDS011;11445;53.816;8.902;2023-06-22T01:45:49;21.58;;;16.73;;
22557;SDS011;11445;53.816;8.902;2023-06-22T01:48:17;21.23;;;16.33;;
22557;SDS011;11445;53.816;8.902;2023-06-22T01:50:45;27.48;;;16.73;;
22557;SDS011;11445;53.816;8.902;2023-06-22T01:53:13;19.85;;;15.82;;
22557;SDS011;11445;53.816;8.902;2023-06-22T01:55:39;19.63;;;15.00;;
22557;SDS011;11445;53.816;8.902;2023-06-22T01:58:06;24.02;;;16.60;;
22557;SDS011;11445;53.816;8.902;2023-06-22T02:00:34;22.73;;;17.65;;
22557;SDS011;11445;53.816;8.902;2023-06-22T02:03:08;26.33;;;18.95;;
22557;SDS011;11445;53.816;8.902;2023-06-22T02:05:37;27.48;;;18.20;;
22557;SDS011;11445;53.816;8.902;2023-06-22T02:08:09;27.38;;;19.45;;
22557;SDS011;11445;53.816;8.902;2023-06-22T02:10:41;26.05;;;18.38;;
22557;SDS011;11445;53.816;8.902;2023-06-22T02:13:10;23.90;;;17.45;;
22557;SDS011;11445;53.816;8.902;2023-06-22T02:15:39;28.83;;;20.08;;
22557;SDS011;11445;53.816;8.902;2023-06-22T02:18:07;28.42;;;20.98;;
22557;SDS011;11445;53.816;8.902;2023-06-22T02:20:36;27.60;;;19.65;;
22557;SDS011;11445;53.816;8.902;2023-06-22T02:23:03;28.13;;;20.73;;
22557;SDS011;11445;53.816;8.902;2023-06-22T02:25:30;29.88;;;21.38;;
22557;SDS011;11445;53.816;8.902;2023-06-22T02:27:58;31.13;;;20.17;;
22557;SDS011;11445;53.816;8.902;2023-06-22T02:30:25;29.38;;;19.67;;
22557;SDS011;11445;53.816;8.902;2023-06-22T02:32:51;26.88;;;20.23;;
22557;SDS011;11445;53.816;8.902;2023-06-22T02:35:25;27.95;;;20.58;;
22557;SDS011;11445;53.816;8.902;2023-06-22T02:37:52;27.55;;;20.40;;
22557;SDS011;11445;53.816;8.902;2023-06-22T02:40:19;26.75;;;19.40;;
22557;SDS011;11445;53.816;8.902;2023-06-22T02:42:46;25.00;;;19.58;;
22557;SDS011;11445;53.816;8.902;2023-06-22T02:45:13;29.50;;;20.92;;
22557;SDS011;11445;53.816;8.902;2023-06-22T02:47:39;29.85;;;21.05;;
22557;SDS011;11445;53.816;8.902;2023-06-22T02:50:06;30.90;;;22.15;;
22557;SDS011;11445;53.816;8.902;2023-06-22T02:52:35;31.50;;;21.50;;
22557;SDS011;11445;53.816;8.902;2023-06-22T02:55:04;31.38;;;22.92;;
22557;SDS011;11445;53.816;8.902;2023-06-22T02:57:33;27.30;;;21.75;;
22557;SDS011;11445;53.816;8.902;2023-06-22T03:00:01;34.55;;;23.08;;
22557;SDS011;11445;53.816;8.902;2023-06-22T03:02:38;30.35;;;21.50;;
22557;SDS011;11445;53.816;8.902;2023-06-22T03:05:05;30.58;;;20.65;;
22557;SDS011;11445;53.816;8.902;2023-06-22T03:07:36;26.02;;;19.70;;
22557;SDS011;11445;53.816;8.902;2023-06-22T03:10:03;28.98;;;20.58;;
22557;SDS011;11445;53.816;8.902;2023-06-22T03:12:30;29.70;;;19.67;;
22557;SDS011;11445;53.816;8.902;2023-06-22T03:14:57;29.02;;;19.40;;
22557;SDS011;11445;53.816;8.902;2023-06-22T03:17:24;27.55;;;19.67;;
22557;SDS011;11445;53.816;8.902;2023-06-22T03:19:51;28.30;;;18.67;;
22557;SDS011;11445;53.816;8.902;2023-06-22T03:22:18;25.88;;;18.02;;
22557;SDS011;11445;53.816;8.902;2023-06-22T03:24:46;30.35;;;19.05;;
22557;SDS011;11445;53.816;8.902;2023-06-22T03:27:12;24.58;;;18.23;;
22557;SDS011;11445;53.816;8.902;2023-06-22T03:29:39;29.27;;;18.77;;
22557;SDS011;11445;53.816;8.902;2023-06-22T03:32:06;25.70;;;18.65;;
22557;SDS011;11445;53.816;8.902;2023-06-22T03:34:33;27.38;;;18.95;;
22557;SDS011;11445;53.816;8.902;2023-06-22T03:37:02;26.85;;;18.35;;
22557;SDS011;11445;53.816;8.902;2023-06-22T03:39:29;26.75;;;18.30;;
22557;SDS011;11445;53.816;8.902;2023-06-22T03:41:57;26.83;;;17.83;;
22557;SDS011;11445;53.816;8.902;2023-06-22T03:44:24;22.40;;;16.90;;
22557;SDS011;11445;53.816;8.902;2023-06-22T03:46:51;25.70;;;18.35;;
22557;SDS011;11445;53.816;8.902;2023-06-22T03:49:17;28.83;;;18.30;;
22557;SDS011;11445;53.816;8.902;2023-06-22T03:51:44;23.63;;;17.75;;
22557;SDS011;11445;53.816;8.902;2023-06-22T03:54:11;25.05;;;17.08;;
22557;SDS011;11445;53.816;8.902;2023-06-22T03:56:38;25.05;;;18.80;;
22557;SDS011;11445;53.816;8.902;2023-06-22T03:59:06;27.30;;;18.58;;
22557;SDS011;11445;53.816;8.902;2023-06-22T04:01:33;25.35;;;17.73;;
22557;SDS011;11445;53.816;8.902;2023-06-22T04:04:00;22.75;;;16.70;;
22557;SDS011;11445;53.816;8.902;2023-06-22T04:06:26;22.67;;;16.52;;
22557;SDS011;11445;53.816;8.902;2023-06-22T04:08:53;24.33;;;16.40;;
22557;SDS011;11445;53.816;8.902;2023-06-22T04:11:20;25.00;;;16.83;;
22557;SDS011;11445;53.816;8.902;2023-06-22T04:13:47;21.27;;;16.40;;
22557;SDS011;11445;53.816;8.902;2023-06-22T04:16:17;24.40;;;16.15;;
22557;SDS011;11445;53.816;8.902;2023-06-22T04:18:44;20.98;;;16.67;;
22557;SDS011;11445;53.816;8.902;2023-06-22T04:21:13;30.40;;;17.13;;
22557;SDS011;11445;53.816;8.902;2023-06-22T04:23:39;24.60;;;17.13;;
22557;SDS011;11445;53.816;8.902;2023-06-22T04:26:08;24.88;;;17.75;;
22557;SDS011;11445;53.816;8.902;2023-06-22T04:28:34;23.92;;;18.75;;
22557;SDS011;11445;53.816;8.902;2023-06-22T04:31:01;25.52;;;17.95;;
22557;SDS011;11445;53.816;8.902;2023-06-22T04:33:29;27.70;;;19.92;;
22557;SDS011;11445;53.816;8.902;2023-06-22T04:35:57;25.00;;;19.23;;
22557;SDS011;11445;53.816;8.902;2023-06-22T04:38:26;34.33;;;19.40;;
22557;SDS011;11445;53.816;8.902;2023-06-22T04:40:53;26.27;;;18.58;;
22557;SDS011;11445;53.816;8.902;2023-06-22T04:43:20;26.90;;;17.67;;
22557;SDS011;11445;53.816;8.902;2023-06-22T04:45:46;23.48;;;17.40;;
22557;SDS011;11445;53.816;8.902;2023-06-22T04:48:17;25.13;;;16.73;;
22557;SDS011;11445;53.816;8.902;2023-06-22T04:50:45;37.35;;;19.38;;
22557;SDS011;11445;53.816;8.902;2023-06-22T04:53:12;29.50;;;18.05;;
22557;SDS011;11445;53.816;8.902;2023-06-22T04:55:39;29.73;;;17.80;;
22557;SDS011;11445;53.816;8.902;2023-06-22T04:58:10;24.70;;;18.05;;
22557;SDS011;11445;53.816;8.902;2023-06-22T05:00:38;25.08;;;17.65;;
22557;SDS011;11445;53.816;8.902;2023-06-22T05:03:05;30.27;;;18.60;;
22557;SDS011;11445;53.816;8.902;2023-06-22T05:05:36;31.20;;;19.83;;
22557;SDS011;11445;53.816;8.902;2023-06-22T05:08:04;35.40;;;18.67;;
22557;SDS011;11445;53.816;8.902;2023-06-22T05:10:32;40.70;;;18.88;;
22557;SDS011;11445;53.816;8.902;2023-06-22T05:12:58;29.85;;;19.02;;
22557;SDS011;11445;53.816;8.902;2023-06-22T05:15:25;35.67;;;20.20;;
22557;SDS011;11445;53.816;8.902;2023-06-22T05:17:55;34.53;;;19.88;;
22557;SDS011;11445;53.816;8.902;2023-06-22T05:20:23;36.47;;;22.63;;
22557;SDS011;11445;53.816;8.902;2023-06-22T05:22:50;35.28;;;21.95;;
22557;SDS011;11445;53.816;8.902;2023-06-22T05:25:18;34.25;;;22.30;;
22557;SDS011;11445;53.816;8.902;2023-06-22T05:27:45;32.63;;;22.30;;
22557;SDS011;11445;53.816;8.902;2023-06-22T05:30:12;34.55;;;22.55;;
22557;SDS011;11445;53.816;8.902;2023-06-22T05:32:39;27.98;;;21.17;;
22557;SDS011;11445;53.816;8.902;2023-06-22T05:35:06;32.10;;;22.27;;
22557;SDS011;11445;53.816;8.902;2023-06-22T05:37:33;31.73;;;21.20;;
22557;SDS011;11445;53.816;8.902;2023-06-22T05:40:00;35.55;;;23.40;;
22557;SDS011;11445;53.816;8.902;2023-06-22T05:42:28;33.35;;;21.88;;
22557;SDS011;11445;53.816;8.902;2023-06-22T05:44:56;33.22;;;22.55;;
22557;SDS011;11445;53.816;8.902;2023-06-22T05:47:23;35.88;;;21.52;;
22557;SDS011;11445;53.816;8.902;2023-06-22T05:49:50;37.80;;;23.48;;
22557;SDS011;11445;53.816;8.902;2023-06-22T05:52:17;31.77;;;22.83;;
22557;SDS011;11445;53.816;8.902;2023-06-22T05:54:44;36.78;;;24.25;;
22557;SDS011;11445;53.816;8.902;2023-06-22T05:57:10;39.20;;;24.63;;
22557;SDS011;11445;53.816;8.902;2023-06-22T05:59:39;39.58;;;26.23;;
22557;SDS011;11445;53.816;8.902;2023-06-22T06:02:05;35.67;;;23.55;;
22557;SDS011;11445;53.816;8.902;2023-06-22T06:04:32;36.88;;;24.17;;
22557;SDS011;11445;53.816;8.902;2023-06-22T06:06:59;30.88;;;20.55;;
22557;SDS011;11445;53.816;8.902;2023-06-22T06:09:26;26.92;;;19.85;;
22557;SDS011;11445;53.816;8.902;2023-06-22T06:11:53;30.63;;;21.45;;
22557;SDS011;11445;53.816;8.902;2023-06-22T06:14:20;23.52;;;17.80;;
22557;SDS011;11445;53.816;8.902;2023-06-22T06:16:48;23.27;;;16.27;;
22557;SDS011;11445;53.816;8.902;2023-06-22T06:19:15;25.23;;;18.00;;
22557;SDS011;11445;53.816;8.902;2023-06-22T06:21:42;26.60;;;17.20;;
22557;SDS011;11445;53.816;8.902;2023-06-22T06:24:09;27.83;;;16.45;;
22557;SDS011;11445;53.816;8.902;2023-06-22T06:26:36;22.08;;;14.52;;
22557;SDS011;11445;53.816;8.902;2023-06-22T06:29:03;18.50;;;13.02;;
22557;SDS011;11445;53.816;8.902;2023-06-22T06:31:30;18.48;;;12.30;;
22557;SDS011;11445;53.816;8.902;2023-06-22T06:33:58;18.27;;;12.63;;
22557;SDS011;11445;53.816;8.902;2023-06-22T06:36:24;15.93;;;12.02;;
22557;SDS011;11445;53.816;8.902;2023-06-22T06:38:51;13.93;;;10.10;;
22557;SDS011;11445;53.816;8.902;2023-06-22T06:41:18;18.95;;;11.63;;
22557;SDS011;11445;53.816;8.902;2023-06-22T06:43:46;13.05;;;10.40;;
22557;SDS011;11445;53.816;8.902;2023-06-22T06:46:12;12.73;;;9.63;;
22557;SDS011;11445;53.816;8.902;2023-06-22T06:48:39;12.75;;;7.18;;
22557;SDS011;11445;53.816;8.902;2023-06-22T06:51:09;18.35;;;8.05;;
22557;SDS011;11445;53.816;8.902;2023-06-22T06:53:35;13.77;;;9.35;;
22557;SDS011;11445;53.816;8.902;2023-06-22T06:56:04;13.90;;;9.35;;
22557;SDS011;11445;53.816;8.902;2023-06-22T06:58:31;11.15;;;8.30;;
22557;SDS011;11445;53.816;8.902;2023-06-22T07:00:58;11.88;;;8.32;;
22557;SDS011;11445;53.816;8.902;2023-06-22T07:03:25;11.80;;;8.60;;
22557;SDS011;11445;53.816;8.902;2023-06-22T07:05:51;13.65;;;8.63;;
22557;SDS011;11445;53.816;8.902;2023-06-22T07:08:20;14.32;;;8.80;;
22557;SDS011;11445;53.816;8.902;2023-06-22T07:10:46;16.38;;;7.63;;
22557;SDS011;11445;53.816;8.902;2023-06-22T07:13:13;9.43;;;6.60;;
22557;SDS011;11445;53.816;8.902;2023-06-22T07:15:40;13.25;;;9.48;;
22557;SDS011;11445;53.816;8.902;2023-06-22T07:18:07;9.57;;;7.78;;
22557;SDS011;11445;53.816;8.902;2023-06-22T07:20:33;11.32;;;8.93;;
22557;SDS011;11445;53.816;8.902;2023-06-22T07:23:00;12.60;;;8.77;;
22557;SDS011;11445;53.816;8.902;2023-06-22T07:25:29;13.10;;;8.85;;
22557;SDS011;11445;53.816;8.902;2023-06-22T07:27:59;12.88;;;8.20;;
22557;SDS011;11445;53.816;8.902;2023-06-22T07:30:27;8.63;;;6.07;;
22557;SDS011;11445;53.816;8.902;2023-06-22T07:32:54;10.27;;;8.00;;
22557;SDS011;11445;53.816;8.902;2023-06-22T07:35:21;10.43;;;8.13;;
22557;SDS011;11445;53.816;8.902;2023-06-22T07:37:47;12.15;;;8.45;;
22557;SDS011;11445;53.816;8.902;2023-06-22T07:40:14;12.27;;;9.77;;
22557;SDS011;11445;53.816;8.902;2023-06-22T07:42:46;12.48;;;7.93;;
22557;SDS011;11445;53.816;8.902;2023-06-22T07:45:13;10.07;;;7.22;;
22557;SDS011;11445;53.816;8.902;2023-06-22T07:47:40;8.90;;;6.15;;
22557;SDS011;11445;53.816;8.902;2023-06-22T07:50:07;8.52;;;6.75;;
22557;SDS011;11445;53.816;8.902;2023-06-22T07:52:35;8.10;;;7.05;;
22557;SDS011;11445;53.816;8.902;2023-06-22T07:55:02;12.38;;;8.82;;
22557;SDS011;11445;53.816;8.902;2023-06-22T07:57:29;15.18;;;10.43;;
22557;SDS011;11445;53.816;8.902;2023-06-22T08:00:00;9.98;;;5.88;;
22557;SDS011;11445;53.816;8.902;2023-06-22T08:02:29;9.60;;;6.50;;
22557;SDS011;11445;53.816;8.902;2023-06-22T08:04:55;8.68;;;7.18;;
22557;SDS011;11445;53.816;8.902;2023-06-22T08:07:22;47.75;;;6.65;;
22557;SDS011;11445;53.816;8.902;2023-06-22T08:09:49;10.07;;;7.00;;
22557;SDS011;11445;53.816;8.902;2023-06-22T08:12:16;7.22;;;6.03;;
22557;SDS011;11445;53.816;8.902;2023-06-22T08:14:43;5.38;;;4.28;;
22557;SDS011;11445;53.816;8.902;2023-06-22T08:17:12;5.25;;;3.60;;
22557;SDS011;11445;53.816;8.902;2023-06-22T08:19:39;6.18;;;3.40;;
22557;SDS011;11445;53.816;8.902;2023-06-22T08:22:06;5.00;;;3.60;;
22557;SDS011;11445;53.816;8.902;2023-06-22T08:24:33;4.85;;;3.50;;
22557;SDS011;11445;53.816;8.902;2023-06-22T08:26:59;10.38;;;3.45;;
22557;SDS011;11445;53.816;8.902;2023-06-22T08:29:26;3.55;;;3.10;;
22557;SDS011;11445;53.816;8.902;2023-06-22T08:31:53;3.42;;;2.80;;
22557;SDS011;11445;53.816;8.902;2023-06-22T08:34:21;4.88;;;2.95;;
22557;SDS011;11445;53.816;8.902;2023-06-22T08:36:49;3.95;;;2.88;;
22557;SDS011;11445;53.816;8.902;2023-06-22T08:39:17;3.72;;;3.00;;
22557;SDS011;11445;53.816;8.902;2023-06-22T08:41:45;5.10;;;3.20;;
22557;SDS011;11445;53.816;8.902;2023-06-22T08:44:12;3.05;;;2.75;;
22557;SDS011;11445;53.816;8.902;2023-06-22T08:46:38;3.65;;;2.92;;
22557;SDS011;11445;53.816;8.902;2023-06-22T08:49:06;3.28;;;2.97;;
22557;SDS011;11445;53.816;8.902;2023-06-22T08:51:36;7.00;;;4.35;;
22557;SDS011;11445;53.816;8.902;2023-06-22T08:54:02;6.75;;;4.75;;
22557;SDS011;11445;53.816;8.902;2023-06-22T08:56:30;7.38;;;5.13;;
22557;SDS011;11445;53.816;8.902;2023-06-22T08:58:56;6.72;;;4.72;;
22557;SDS011;11445;53.816;8.902;2023-06-22T09:01:23;9.38;;;6.35;;
22557;SDS011;11445;53.816;8.902;2023-06-22T09:03:50;9.93;;;7.43;;
22557;SDS011;11445;53.816;8.902;2023-06-22T09:06:22;8.23;;;5.32;;
22557;SDS011;11445;53.816;8.902;2023-06-22T09:08:50;11.07;;;6.40;;
22557;SDS011;11445;53.816;8.902;2023-06-22T09:11:17;10.07;;;5.90;;
22557;SDS011;11445;53.816;8.902;2023-06-22T09:13:44;6.20;;;5.15;;
22557;SDS011;11445;53.816;8.902;2023-06-22T09:16:11;7.15;;;4.75;;
22557;SDS011;11445;53.816;8.902;2023-06-22T09:18:38;5.40;;;3.90;;
22557;SDS011;11445;53.816;8.902;2023-06-22T09:21:05;7.80;;;5.90;;
22557;SDS011;11445;53.816;8.902;2023-06-22T09:23:32;12.18;;;7.10;;
22557;SDS011;11445;53.816;8.902;2023-06-22T09:26:00;8.93;;;5.35;;
22557;SDS011;11445;53.816;8.902;2023-06-22T09:28:29;5.47;;;4.97;;
22557;SDS011;11445;53.816;8.902;2023-06-22T09:30:55;12.23;;;4.90;;
22557;SDS011;11445;53.816;8.902;2023-06-22T09:33:23;6.05;;;4.47;;
22557;SDS011;11445;53.816;8.902;2023-06-22T09:35:50;8.45;;;5.57;;
22557;SDS011;11445;53.816;8.902;2023-06-22T09:38:17;5.45;;;4.18;;
22557;SDS011;11445;53.816;8.902;2023-06-22T09:40:43;5.95;;;4.20;;
22557;SDS011;11445;53.816;8.902;2023-06-22T09:43:12;4.75;;;3.42;;
22557;SDS011;11445;53.816;8.902;2023-06-22T09:45:38;6.55;;;4.03;;
22557;SDS011;11445;53.816;8.902;2023-06-22T09:48:05;7.03;;;3.97;;
22557;SDS011;11445;53.816;8.902;2023-06-22T09:50:32;3.47;;;2.90;;
22557;SDS011;11445;53.816;8.902;2023-06-22T09:52:59;2.72;;;2.40;;
22557;SDS011;11445;53.816;8.902;2023-06-22T09:55:25;3.33;;;2.40;;
22557;SDS011;11445;53.816;8.902;2023-06-22T09:57:52;2.53;;;2.08;;
22557;SDS011;11445;53.816;8.902;2023-06-22T10:00:22;3.33;;;2.42;;
22557;SDS011;11445;53.816;8.902;2023-06-22T10:02:48;3.83;;;2.50;;
22557;SDS011;11445;53.816;8.902;2023-06-22T10:05:15;2.25;;;2.05;;
22557;SDS011;11445;53.816;8.902;2023-06-22T10:07:42;4.18;;;2.15;;
22557;SDS011;11445;53.816;8.902;2023-06-22T10:10:09;3.85;;;2.10;;
22557;SDS011;11445;53.816;8.902;2023-06-22T10:12:36;4.25;;;2.08;;
22557;SDS011;11445;53.816;8.902;2023-06-22T10:15:07;1.95;;;1.85;;
22557;SDS011;11445;53.816;8.902;2023-06-22T10:17:36;2.40;;;2.08;;
22557;SDS011;11445;53.816;8.902;2023-06-22T10:20:03;2.20;;;2.00;;
22557;SDS011;11445;53.816;8.902;2023-06-22T10:22:37;3.08;;;1.85;;
22557;SDS011;11445;53.816;8.902;2023-06-22T10:25:05;2.63;;;2.33;;
22557;SDS011;11445;53.816;8.902;2023-06-22T10:27:32;2.30;;;1.90;;
22557;SDS011;11445;53.816;8.902;2023-06-22T10:29:59;2.13;;;1.70;;
22557;SDS011;11445;53.816;8.902;2023-06-22T10:32:26;2.90;;;1.65;;
22557;SDS011;11445;53.816;8.902;2023-06-22T10:34:54;3.60;;;1.80;;
22557;SDS011;11445;53.816;8.902;2023-06-22T10:37:21;3.15;;;2.00;;
22557;SDS011;11445;53.816;8.902;2023-06-22T10:39:48;2.45;;;1.88;;
22557;SDS011;11445;53.816;8.902;2023-06-22T10:42:15;2.35;;;2.17;;
22557;SDS011;11445;53.816;8.902;2023-06-22T10:44:42;2.75;;;2.20;;
22557;SDS011;11445;53.816;8.902;2023-06-22T10:47:09;2.47;;;1.90;;
22557;SDS011;11445;53.816;8.902;2023-06-22T10:49:37;2.53;;;2.05;;
22557;SDS011;11445;53.816;8.902;2023-06-22T10:52:06;2.22;;;2.03;;
22557;SDS011;11445;53.816;8.902;2023-06-22T10:54:35;2.13;;;1.90;;
22557;SDS011;11445;53.816;8.902;2023-06-22T10:57:03;3.28;;;1.98;;
22557;SDS011;11445;53.816;8.902;2023-06-22T10:59:30;3.30;;;2.05;;
22557;SDS011;11445;53.816;8.902;2023-06-22T11:01:56;1.85;;;1.65;;
22557;SDS011;11445;53.816;8.902;2023-06-22T11:04:24;1.45;;;1.35;;
22557;SDS011;11445;53.816;8.902;2023-06-22T11:06:51;2.22;;;1.63;;
22557;SDS011;11445;53.816;8.902;2023-06-22T11:09:19;2.03;;;1.42;;
22557;SDS011;11445;53.816;8.902;2023-06-22T11:11:46;1.73;;;1.23;;
22557;SDS011;11445;53.816;8.902;2023-06-22T11:14:13;1.20;;;1.10;;
22557;SDS011;11445;53.816;8.902;2023-06-22T11:16:40;1.67;;;1.20;;
22557;SDS011;11445;53.816;8.902;2023-06-22T11:19:07;4.18;;;2.50;;
22557;SDS011;11445;53.816;8.902;2023-06-22T11:21:34;2.95;;;2.10;;
22557;SDS011;11445;53.816;8.902;2023-06-22T11:24:01;2.45;;;1.88;;
22557;SDS011;11445;53.816;8.902;2023-06-22T11:26:29;3.22;;;2.60;;
22557;SDS011;11445;53.816;8.902;2023-06-22T11:28:56;5.47;;;3.13;;
22557;SDS011;11445;53.816;8.902;2023-06-22T11:31:23;7.55;;;3.35;;
22557;SDS011;11445;53.816;8.902;2023-06-22T11:33:51;5.63;;;3.35;;
22557;SDS011;11445;53.816;8.902;2023-06-22T11:36:17;5.40;;;3.45;;
22557;SDS011;11445;53.816;8.902;2023-06-22T11:38:45;2.63;;;2.40;;
22557;SDS011;11445;53.816;8.902;2023-06-22T11:41:12;4.93;;;3.20;;
22557;SDS011;11445;53.816;8.902;2023-06-22T11:43:40;8.15;;;3.35;;
22557;SDS011;11445;53.816;8.902;2023-06-22T11:46:07;3.55;;;2.70;;
22557;SDS011;11445;53.816;8.902;2023-06-22T11:48:34;3.30;;;2.50;;
22557;SDS011;11445;53.816;8.902;2023-06-22T11:51:01;3.95;;;1.83;;
22557;SDS011;11445;53.816;8.902;2023-06-22T11:53:28;2.90;;;2.28;;
22557;SDS011;11445;53.816;8.902;2023-06-22T11:55:55;4.78;;;3.08;;
22557;SDS011;11445;53.816;8.902;2023-06-22T11:58:22;5.65;;;3.85;;
22557;SDS011;11445;53.816;8.902;2023-06-22T12:00:50;6.30;;;5.25;;
22557;SDS011;11445;53.816;8.902;2023-06-22T12:03:17;10.02;;;5.57;;
22557;SDS011;11445;53.816;8.902;2023-06-22T12:05:44;7.88;;;5.57;;
22557;SDS011;11445;53.816;8.902;2023-06-22T12:08:11;7.90;;;5.53;;
22557;SDS011;11445;53.816;8.902;2023-06-22T12:10:38;9.75;;;5.32;;
22557;SDS011;11445;53.816;8.902;2023-06-22T12:13:05;9.05;;;4.57;;
22557;SDS011;11445;53.816;8.902;2023-06-22T12:15:32;6.95;;;5.10;;
22557;SDS011;11445;53.816;8.902;2023-06-22T12:18:00;5.75;;;3.50;;
22557;SDS011;11445;53.816;8.902;2023-06-22T12:20:27;7.53;;;3.88;;
22557;SDS011;11445;53.816;8.902;2023-06-22T12:22:54;4.85;;;3.95;;
22557;SDS011;11445;53.816;8.902;2023-06-22T12:25:23;4.93;;;3.00;;
22557;SDS011;11445;53.816;8.902;2023-06-22T12:27:50;5.25;;;3.97;;
22557;SDS011;11445;53.816;8.902;2023-06-22T12:30:17;5.13;;;3.88;;
22557;SDS011;11445;53.816;8.902;2023-06-22T12:32:44;4.90;;;4.20;;
22557;SDS011;11445;53.816;8.902;2023-06-22T12:35:12;5.00;;;4.25;;
22557;SDS011;11445;53.816;8.902;2023-06-22T12:37:40;7.95;;;5.35;;
22557;SDS011;11445;53.816;8.902;2023-06-22T12:40:07;9.52;;;4.13;;
22557;SDS011;11445;53.816;8.902;2023-06-22T12:42:34;9.98;;;4.18;;
22557;SDS011;11445;53.816;8.902;2023-06-22T12:45:01;6.57;;;3.50;;
22557;SDS011;11445;53.816;8.902;2023-06-22T12:47:28;7.13;;;4.00;;
22557;SDS011;11445;53.816;8.902;2023-06-22T12:49:55;6.63;;;4.40;;
22557;SDS011;11445;53.816;8.902;2023-06-22T12:52:23;4.53;;;3.60;;
22557;SDS011;11445;53.816;8.902;2023-06-22T12:54:50;4.10;;;2.90;;
22557;SDS011;11445;53.816;8.902;2023-06-22T12:57:17;4.57;;;3.30;;
22557;SDS011;11445;53.816;8.902;2023-06-22T12:59:45;4.40;;;3.58;;
22557;SDS011;11445;53.816;8.902;2023-06-22T13:02:12;7.55;;;3.47;;
22557;SDS011;11445;53.816;8.902;2023-06-22T13:04:38;6.20;;;3.45;;
22557;SDS011;11445;53.816;8.902;2023-06-22T13:07:05;6.57;;;3.30;;
22557;SDS011;11445;53.816;8.902;2023-06-22T13:09:33;3.88;;;3.05;;
22557;SDS011;11445;53.816;8.902;2023-06-22T13:12:02;3.83;;;3.15;;
22557;SDS011;11445;53.816;8.902;2023-06-22T13:14:29;5.78;;;3.00;;
22557;SDS011;11445;53.816;8.902;2023-06-22T13:16:56;5.45;;;3.08;;
22557;SDS011;11445;53.816;8.902;2023-06-22T13:19:23;5.57;;;3.55;;
22557;SDS011;11445;53.816;8.902;2023-06-22T13:21:51;4.60;;;2.80;;
22557;SDS011;11445;53.816;8.902;2023-06-22T13:24:17;5.78;;;2.28;;
22557;SDS011;11445;53.816;8.902;2023-06-22T13:26:45;4.25;;;2.40;;
22557;SDS011;11445;53.816;8.902;2023-06-22T13:29:12;3.60;;;2.30;;
22557;SDS011;11445;53.816;8.902;2023-06-22T13:31:39;6.07;;;2.30;;
22557;SDS011;11445;53.816;8.902;2023-06-22T13:34:06;6.30;;;2.03;;
22557;SDS011;11445;53.816;8.902;2023-06-22T13:36:33;2.95;;;2.40;;
22557;SDS011;11445;53.816;8.902;2023-06-22T13:38:59;5.05;;;2.17;;
22557;SDS011;11445;53.816;8.902;2023-06-22T13:41:26;6.47;;;2.60;;
22557;SDS011;11445;53.816;8.902;2023-06-22T13:43:54;7.15;;;2.50;;
22557;SDS011;11445;53.816;8.902;2023-06-22T13:46:21;4.15;;;2.70;;
22557;SDS011;11445;53.816;8.902;2023-06-22T13:48:48;5.78;;;3.03;;
22557;SDS011;11445;53.816;8.902;2023-06-22T13:51:15;5.15;;;3.15;;
22557;SDS011;11445;53.816;8.902;2023-06-22T13:53:41;3.55;;;2.58;;
22557;SDS011;11445;53.816;8.902;2023-06-22T13:56:08;4.28;;;2.88;;
22557;SDS011;11445;53.816;8.902;2023-06-22T13:58:35;3.78;;;2.55;;
22557;SDS011;11445;53.816;8.902;2023-06-22T14:01:03;3.28;;;2.83;;
22557;SDS011;11445;53.816;8.902;2023-06-22T14:03:30;6.72;;;2.97;;
22557;SDS011;11445;53.816;8.902;2023-06-22T14:05:57;5.53;;;2.53;;
22557;SDS011;11445;53.816;8.902;2023-06-22T14:08:24;8.02;;;2.40;;
22557;SDS011;11445;53.816;8.902;2023-06-22T14:10:51;6.72;;;2.50;;
22557;SDS011;11445;53.816;8.902;2023-06-22T14:13:18;3.30;;;2.40;;
22557;SDS011;11445;53.816;8.902;2023-06-22T14:15:45;5.63;;;2.13;;
22557;SDS011;11445;53.816;8.902;2023-06-22T14:18:14;3.47;;;2.42;;
22557;SDS011;11445;53.816;8.902;2023-06-22T14:20:41;4.35;;;1.90;;
22557;SDS011;11445;53.816;8.902;2023-06-22T14:23:08;2.58;;;1.90;;
22557;SDS011;11445;53.816;8.902;2023-06-22T14:25:35;4.60;;;2.00;;
22557;SDS011;11445;53.816;8.902;2023-06-22T14:28:02;7.88;;;2.30;;
22557;SDS011;11445;53.816;8.902;2023-06-22T14:30:28;3.30;;;2.28;;
22557;SDS011;11445;53.816;8.902;2023-06-22T14:32:55;3.17;;;1.75;;
22557;SDS011;11445;53.816;8.902;2023-06-22T14:35:23;5.78;;;1.98;;
22557;SDS011;11445;53.816;8.902;2023-06-22T14:37:50;6.15;;;1.90;;